Ringsted, IA (50578)

9:34 PM CST on January 22, 2017 (GMT -0600)
Adams St. | | Change Station
Active Advisory: Winter Storm Watch

Elev 1240 ft 43.39 °N, 94.47 °W | Updated 10 seconds ago

Overcast
Overcast
30.8 °F
Feels Like 31 °F
N
2.0
Wind Variable Wind from NW

Today
High -- | Low -- °F
--% Chance of Precip.
Yesterday
High -- | Low -- °F
Precip. -- in
Pressure 29.83 in
Visibility 4.0 miles
Clouds Overcast 500 ft
Windchill 31 °F
Dew Point 29 °F
Humidity 93%
Rainfall 0.00 in
Snow Depth Not available.
7:42 AM 5:17 PM
Waning Crescent, 21% visible
SPECI KEST 230312Z AUTO 32008KT 4SM BR OVC005 M01/M01 A2983 RMK AO2 T10111011 $
Pressure 29.83 in
Visibility 4.0 miles
Clouds Overcast 500 ft
Windchill 31 °F
Dew Point 29 °F
Humidity 93%
Rainfall 0.00 in
Snow Depth Not available.
7:42 AM 5:17 PM
Waning Crescent, 21% visible
SPECI KEST 230312Z AUTO 32008KT 4SM BR OVC005 M01/M01 A2983 RMK AO2 T10111011 $

Get Your Daily Forecast Email!

Thanks for signing up!

Be on the lookout for a verification email in your inbox.

You'll start receiving the daily forecast at 8 AM.

×

10-Day Weather Forecast

Almanac

Astronomy

Jan. 22, 2017 Rise Set
Actual Time
Civil Twilight
Nautical Twilight
Astronomical Twilight
Moon
Length of Visible Light
Length of Day
Tomorrow will be .
, % of the Moon is Illuminated

Today's Extremes

State Highs State Lows

Community

WunderPhotos

Upload Photos

1,962,540 photos uploaded!

WunderBlog® & News

Nearby

Air Quality

  Air Quality AQ Index Pollutant
Not available.

Snow Depth

Station Depth Elevation

Earthquake Activity

City Distance Mag. Time & Date
Minimum magnitude displayed is 2.5.

Coastal Water Temperatures

Place Temperature

Stations

Nearby Weather Stations

Station Location Temp. Windchill Dew Point Humidity Wind Precip. Elev Updated Type
                   

Watches & Warnings

Winter Storm Watch
Issued: 3:01 PM CST Jan. 22, 2017 – National Weather Service

... Winter Storm Watch in effect from Tuesday afternoon through
Wednesday afternoon...

The National Weather Service in Des Moines has issued a Winter
Storm Watch, which is in effect from Tuesday afternoon through
Wednesday afternoon.

* Timing trends... snow will develop Tuesday afternoon and continue
throughout much of Tuesday evening.

* Storm total snow accumulations... 4 to 7 inches with locally
higher amounts possible.

* Winds/visibility... blustery northwest winds of 20 to 30 mph will
develop late Tuesday night and persist through the day
Wednesday. Substantial visibility restrictions due to blowing and
drifting snow are highly likely.

* Impacts... snow covered and slick roads combined with the
visibility restrictions will lead to hazardous travel
conditions.

Precautionary/preparedness actions...

A Winter Storm Watch means there is a potential for significant
snow, sleet, or ice accumulations that may impact travel.
Continue to monitor the latest forecasts.



Podrazik